Time;durP1;ratioP1;P1;durP2;ratioP2;P2;SDS_P1;SDS_P2;PMS_P1;PMS_P2;Temp;Humidity;BMP_temperature;BMP_pressure;BME280_temperature;BME280_humidity;BME280_pressure;Samples;Min_cycle;Max_cycle;Signal;HPM_P1;HPM_P2
2021/10/02 00:01:49;;;;;;;1.90;0.90;;;;;;;;;;4886563;29;20517;-78
2021/10/02 00:45:27;;;;;;;2.13;1.10;;;;;;;;;;4865301;29;20427;-77
2021/10/02 00:47:56;;;;;;;2.53;0.93;;;;;;;;;;4878822;29;20048;-77
2021/10/02 00:50:23;;;;;;;2.95;1.38;;;;;;;;;;4881224;29;20053;-78
2021/10/02 00:52:51;;;;;;;2.55;1.33;;;;;;;;;;4878151;29;20512;-78
2021/10/02 00:55:18;;;;;;;1.90;1.00;;;;;;;;;;4900028;29;20045;-78
2021/10/02 00:57:45;;;;;;;1.33;0.77;;;;;;;;;;4853878;29;20132;-77
2021/10/02 01:00:13;;;;;;;1.67;1.10;;;;;;;;;;4863593;29;20387;-78
2021/10/02 01:03:10;;;;;;;3.33;1.50;;;;;;;;;;4865366;29;20128;-78
2021/10/02 01:05:47;;;;;;;2.08;0.85;;;;;;;;;;4849317;29;20061;-78
2021/10/02 01:08:33;;;;;;;4.20;1.10;;;;;;;;;;4866648;29;20060;-78
2021/10/02 01:11:14;;;;;;;2.30;1.42;;;;;;;;;;4874110;29;20055;-78
2021/10/02 01:13:50;;;;;;;1.67;0.85;;;;;;;;;;4901764;29;20057;-78
2021/10/02 01:16:37;;;;;;;3.20;1.75;;;;;;;;;;4882708;29;20040;-78
2021/10/02 01:19:19;;;;;;;1.90;1.13;;;;;;;;;;4861533;29;20045;-78
2021/10/02 01:21:58;;;;;;;4.10;1.52;;;;;;;;;;4859898;29;20429;-77
2021/10/02 01:24:44;;;;;;;3.08;1.42;;;;;;;;;;4872274;29;20044;-78
2021/10/02 01:27:31;;;;;;;2.10;1.17;;;;;;;;;;4878027;29;20107;-77
2021/10/02 01:30:02;;;;;;;2.13;1.00;;;;;;;;;;4859779;29;20056;-77
2021/10/02 01:32:33;;;;;;;3.00;1.40;;;;;;;;;;4855042;29;20049;-77
2021/10/02 01:35:17;;;;;;;3.13;1.10;;;;;;;;;;4848774;29;20135;-77
2021/10/02 01:38:03;;;;;;;2.50;1.27;;;;;;;;;;4863551;29;20049;-77
2021/10/02 01:48:51;;;;;;;4.00;2.00;;;;;;;;;;4851293;29;20057;-77
2021/10/02 01:51:18;;;;;;;3.65;1.70;;;;;;;;;;4856301;29;20505;-77
2021/10/02 01:53:47;;;;;;;3.15;1.27;;;;;;;;;;4881474;29;20485;-77
2021/10/02 01:56:16;;;;;;;3.83;1.35;;;;;;;;;;4863461;29;20105;-77
2021/10/02 01:58:44;;;;;;;2.22;1.23;;;;;;;;;;4876803;29;20112;-77
2021/10/02 02:01:12;;;;;;;3.00;1.45;;;;;;;;;;4851066;29;20105;-77
2021/10/02 02:03:41;;;;;;;4.75;2.05;;;;;;;;;;4860299;29;20051;-77
2021/10/02 02:06:10;;;;;;;4.03;1.67;;;;;;;;;;4869074;29;20045;-77
2021/10/02 02:08:42;;;;;;;3.25;1.67;;;;;;;;;;4857164;29;20053;-76
2021/10/02 02:11:25;;;;;;;4.68;1.60;;;;;;;;;;4885080;29;20044;-76
2021/10/02 02:13:54;;;;;;;4.32;1.55;;;;;;;;;;4858046;29;20143;-77
2021/10/02 02:16:22;;;;;;;4.25;1.67;;;;;;;;;;4850401;29;20065;-77
2021/10/02 02:18:50;;;;;;;4.25;1.85;;;;;;;;;;4888591;29;20115;-77
2021/10/02 02:21:19;;;;;;;5.03;2.17;;;;;;;;;;4879758;29;20039;-77
2021/10/02 02:23:47;;;;;;;4.70;1.75;;;;;;;;;;4876907;29;20077;-76
2021/10/02 02:26:15;;;;;;;3.70;1.98;;;;;;;;;;4881076;29;20097;-76
2021/10/02 02:28:42;;;;;;;2.95;1.75;;;;;;;;;;4872299;29;20100;-76
2021/10/02 02:31:11;;;;;;;4.53;1.83;;;;;;;;;;4881297;29;20071;-76
2021/10/02 02:33:39;;;;;;;4.28;1.95;;;;;;;;;;4870902;29;20123;-76
2021/10/02 02:36:07;;;;;;;4.20;1.38;;;;;;;;;;4851223;29;20056;-77
2021/10/02 02:38:35;;;;;;;4.00;1.83;;;;;;;;;;4876726;29;20387;-76
2021/10/02 02:41:04;;;;;;;5.03;1.65;;;;;;;;;;4864473;29;20052;-76
2021/10/02 02:43:34;;;;;;;2.83;1.50;;;;;;;;;;4892500;29;20047;-74
2021/10/02 02:46:17;;;;;;;2.90;1.65;;;;;;;;;;4876359;29;20104;-76
2021/10/02 02:48:48;;;;;;;2.50;1.30;;;;;;;;;;4878294;29;20044;-76
2021/10/02 02:51:18;;;;;;;4.57;1.63;;;;;;;;;;4863083;29;20471;-76
2021/10/02 02:57:26;;;;;;;3.50;1.52;;;;;;;;;;4883775;29;20120;-76
2021/10/02 03:00:06;;;;;;;3.95;1.63;;;;;;;;;;4878329;29;20048;-76
2021/10/02 03:02:36;;;;;;;3.60;1.80;;;;;;;;;;4881113;29;20505;-76
2021/10/02 03:05:05;;;;;;;3.80;2.22;;;;;;;;;;4854047;29;20049;-76
2021/10/02 03:07:34;;;;;;;3.65;1.50;;;;;;;;;;4864879;29;20577;-76
2021/10/02 03:10:02;;;;;;;4.00;2.22;;;;;;;;;;4890079;29;20405;-76
2021/10/02 03:12:34;;;;;;;4.90;2.08;;;;;;;;;;4865012;29;20037;-76
2021/10/02 03:15:02;;;;;;;3.78;2.15;;;;;;;;;;4871741;29;20061;-76
2021/10/02 03:17:30;;;;;;;3.67;1.80;;;;;;;;;;4878316;29;20037;-76
2021/10/02 03:19:59;;;;;;;4.60;1.75;;;;;;;;;;4862126;29;20089;-76
2021/10/02 03:22:27;;;;;;;6.10;2.17;;;;;;;;;;4892312;29;20047;-76
2021/10/02 03:24:57;;;;;;;4.25;1.85;;;;;;;;;;4866892;29;20045;-76
2021/10/02 03:27:26;;;;;;;3.92;2.60;;;;;;;;;;4881172;29;20048;-76
2021/10/02 03:29:53;;;;;;;4.78;1.88;;;;;;;;;;4881024;29;20044;-76
2021/10/02 03:32:22;;;;;;;3.90;1.75;;;;;;;;;;4877847;29;20049;-76
2021/10/02 03:34:52;;;;;;;3.75;1.58;;;;;;;;;;4865372;29;20051;-76
2021/10/02 03:37:19;;;;;;;3.55;1.50;;;;;;;;;;4862289;29;20045;-76
2021/10/02 03:39:46;;;;;;;3.85;2.03;;;;;;;;;;4864695;29;20041;-76
2021/10/02 03:42:18;;;;;;;2.70;1.40;;;;;;;;;;4878723;29;20045;-76
2021/10/02 03:44:46;;;;;;;4.95;2.10;;;;;;;;;;4872068;29;20045;-76
2021/10/02 03:47:15;;;;;;;3.65;1.90;;;;;;;;;;4877751;29;20131;-76
2021/10/02 03:49:43;;;;;;;5.82;2.30;;;;;;;;;;4881498;29;20044;-76
2021/10/02 03:52:11;;;;;;;3.38;1.98;;;;;;;;;;4864195;29;20080;-76
2021/10/02 03:54:38;;;;;;;4.82;2.33;;;;;;;;;;4878935;29;20053;-76
2021/10/02 03:57:06;;;;;;;6.57;2.10;;;;;;;;;;4878846;29;20542;-76
2021/10/02 03:59:33;;;;;;;4.90;2.08;;;;;;;;;;4865330;29;20045;-76
2021/10/02 04:02:01;;;;;;;4.95;2.60;;;;;;;;;;4883261;29;20125;-76
2021/10/02 04:04:28;;;;;;;3.83;1.90;;;;;;;;;;4865829;29;20378;-75
2021/10/02 04:06:56;;;;;;;7.18;3.28;;;;;;;;;;4865482;29;20049;-76
2021/10/02 04:09:24;;;;;;;6.32;2.10;;;;;;;;;;4858023;29;20044;-76
2021/10/02 04:11:51;;;;;;;4.93;2.80;;;;;;;;;;4878712;29;20056;-76
2021/10/02 04:14:19;;;;;;;6.45;2.60;;;;;;;;;;4861446;29;20054;-76
2021/10/02 04:16:47;;;;;;;5.45;3.50;;;;;;;;;;4864072;29;20102;-76
2021/10/02 04:19:14;;;;;;;7.97;3.97;;;;;;;;;;4851023;29;20120;-75
2021/10/02 04:21:41;;;;;;;5.35;3.80;;;;;;;;;;4862807;29;20102;-76
2021/10/02 04:24:09;;;;;;;5.35;3.05;;;;;;;;;;4862647;29;20105;-76
2021/10/02 04:26:37;;;;;;;6.97;3.35;;;;;;;;;;4862129;29;20105;-76
2021/10/02 04:29:04;;;;;;;4.97;2.50;;;;;;;;;;4862145;29;20140;-76
2021/10/02 04:31:32;;;;;;;5.38;2.50;;;;;;;;;;4863407;29;20077;-76
2021/10/02 04:33:59;;;;;;;4.43;2.45;;;;;;;;;;4862065;29;20554;-76
2021/10/02 04:36:26;;;;;;;7.25;2.90;;;;;;;;;;4862145;29;20052;-76
2021/10/02 04:38:54;;;;;;;5.60;2.92;;;;;;;;;;4852766;29;20064;-76
2021/10/02 04:41:21;;;;;;;6.28;2.85;;;;;;;;;;4831827;29;20040;-76
2021/10/02 04:43:49;;;;;;;7.93;3.30;;;;;;;;;;4861873;29;20040;-76
2021/10/02 04:46:17;;;;;;;5.45;3.30;;;;;;;;;;4862079;29;20109;-76
2021/10/02 04:48:44;;;;;;;5.57;3.20;;;;;;;;;;4846854;29;20064;-76
2021/10/02 04:51:12;;;;;;;4.68;2.65;;;;;;;;;;4851603;29;20125;-76
2021/10/02 04:53:40;;;;;;;4.43;2.53;;;;;;;;;;4860988;29;20400;-76
2021/10/02 04:56:12;;;;;;;5.70;2.90;;;;;;;;;;4861942;29;20049;-76
2021/10/02 04:58:40;;;;;;;;;;;;;;;;;;4857076;29;20479;-76
2021/10/02 05:01:07;;;;;;;5.38;2.33;;;;;;;;;;4877546;29;20404;-76
2021/10/02 05:03:36;;;;;;;5.57;3.08;;;;;;;;;;4846766;29;20102;-76
2021/10/02 05:06:04;;;;;;;6.35;2.90;;;;;;;;;;4856955;29;20076;-76
2021/10/02 05:08:32;;;;;;;5.28;3.28;;;;;;;;;;4843296;29;20049;-76
2021/10/02 05:11:00;;;;;;;5.53;3.05;;;;;;;;;;4845828;29;20088;-76
2021/10/02 05:13:28;;;;;;;5.45;2.75;;;;;;;;;;4862954;29;20098;-76
2021/10/02 05:15:55;;;;;;;4.85;2.33;;;;;;;;;;4864972;29;20045;-76
2021/10/02 05:18:23;;;;;;;5.35;2.58;;;;;;;;;;4861603;29;20092;-76
2021/10/02 05:20:50;;;;;;;4.97;2.30;;;;;;;;;;4864897;29;20084;-76
2021/10/02 05:23:17;;;;;;;4.88;2.30;;;;;;;;;;4864940;29;20140;-76
2021/10/02 05:25:45;;;;;;;4.53;2.28;;;;;;;;;;4856980;29;20045;-76
2021/10/02 05:28:12;;;;;;;4.15;2.38;;;;;;;;;;4864678;29;20077;-76
2021/10/02 05:30:40;;;;;;;4.72;2.30;;;;;;;;;;4864022;29;20131;-76
2021/10/02 05:33:07;;;;;;;4.28;2.25;;;;;;;;;;4880810;29;20121;-76
2021/10/02 05:35:34;;;;;;;3.60;2.08;;;;;;;;;;4864496;29;20052;-76
2021/10/02 05:38:02;;;;;;;4.50;2.30;;;;;;;;;;4897391;29;20043;-76
2021/10/02 05:40:30;;;;;;;4.80;2.03;;;;;;;;;;4890265;29;20550;-76
2021/10/02 05:42:58;;;;;;;3.53;2.03;;;;;;;;;;4851975;29;20036;-76
2021/10/02 05:45:26;;;;;;;3.35;1.65;;;;;;;;;;4838515;29;20080;-76
2021/10/02 05:47:53;;;;;;;4.00;2.15;;;;;;;;;;4853704;29;20056;-76
2021/10/02 05:50:20;;;;;;;3.92;1.98;;;;;;;;;;4864264;29;20124;-76
2021/10/02 05:52:48;;;;;;;3.47;1.77;;;;;;;;;;4872666;29;20135;-76
2021/10/02 05:55:15;;;;;;;5.10;2.22;;;;;;;;;;4868205;29;20064;-76
2021/10/02 05:57:42;;;;;;;3.90;2.25;;;;;;;;;;4864112;29;20093;-76
2021/10/02 06:00:10;;;;;;;5.10;2.65;;;;;;;;;;4863753;29;20610;-76
2021/10/02 06:02:37;;;;;;;5.28;2.55;;;;;;;;;;4880663;29;20043;-76
2021/10/02 06:05:05;;;;;;;3.63;1.90;;;;;;;;;;4884216;29;20052;-76
2021/10/02 06:07:32;;;;;;;4.07;2.25;;;;;;;;;;4879996;29;20469;-76
2021/10/02 06:10:00;;;;;;;3.08;1.70;;;;;;;;;;4848787;29;20128;-76
2021/10/02 06:12:27;;;;;;;4.57;1.83;;;;;;;;;;4876346;29;20053;-76
2021/10/02 06:14:55;;;;;;;2.65;1.30;;;;;;;;;;4876293;29;20484;-76
2021/10/02 06:17:22;;;;;;;2.28;1.25;;;;;;;;;;4878733;29;20049;-73
2021/10/02 06:19:50;;;;;;;5.20;2.08;;;;;;;;;;4876929;29;20052;-76
2021/10/02 06:22:17;;;;;;;2.75;1.23;;;;;;;;;;4874143;29;20421;-77
2021/10/02 06:24:44;;;;;;;4.63;2.17;;;;;;;;;;4876237;29;20072;-75
2021/10/02 06:27:12;;;;;;;5.10;2.17;;;;;;;;;;4859994;29;20059;-76
2021/10/02 06:29:39;;;;;;;2.85;1.40;;;;;;;;;;4878912;29;20061;-75
2021/10/02 06:32:07;;;;;;;2.50;1.42;;;;;;;;;;4879819;29;20470;-75
2021/10/02 06:34:34;;;;;;;5.50;2.00;;;;;;;;;;4882735;29;20397;-77
2021/10/02 06:37:01;;;;;;;3.72;1.77;;;;;;;;;;4853310;29;20040;-76
2021/10/02 06:39:29;;;;;;;3.25;1.73;;;;;;;;;;4866705;29;20501;-76
2021/10/02 06:41:56;;;;;;;5.15;3.25;;;;;;;;;;4878694;29;20041;-76
2021/10/02 06:44:24;;;;;;;4.20;2.45;;;;;;;;;;4876042;29;20387;-77
2021/10/02 06:46:51;;;;;;;4.57;2.22;;;;;;;;;;4879536;29;20498;-77
2021/10/02 06:49:21;;;;;;;5.88;2.90;;;;;;;;;;4856330;29;20084;-77
2021/10/02 06:51:48;;;;;;;3.20;1.75;;;;;;;;;;4866684;29;20057;-77
2021/10/02 06:54:16;;;;;;;6.15;2.33;;;;;;;;;;4877123;29;20045;-76
2021/10/02 06:56:43;;;;;;;3.97;2.05;;;;;;;;;;4868472;29;20116;-77
2021/10/02 06:59:10;;;;;;;5.60;2.40;;;;;;;;;;4885171;29;20497;-82
2021/10/02 07:01:38;;;;;;;4.35;2.28;;;;;;;;;;4855047;29;20105;-77
2021/10/02 07:04:05;;;;;;;4.70;2.55;;;;;;;;;;4832792;29;20045;-77
2021/10/02 07:06:45;;;;;;;5.95;2.90;;;;;;;;;;4876124;29;20057;-78
2021/10/02 07:09:12;;;;;;;3.85;2.20;;;;;;;;;;4852861;29;20128;-78
2021/10/02 07:11:39;;;;;;;3.97;2.33;;;;;;;;;;4888253;29;20109;-78
2021/10/02 07:14:07;;;;;;;4.55;2.15;;;;;;;;;;4854625;29;20065;-78
2021/10/02 07:16:36;;;;;;;4.60;2.03;;;;;;;;;;4878296;29;20406;-78
2021/10/02 07:19:04;;;;;;;6.65;3.55;;;;;;;;;;4853718;29;20045;-77
2021/10/02 07:21:31;;;;;;;7.20;3.63;;;;;;;;;;4871232;29;20072;-78
2021/10/02 07:23:59;;;;;;;5.32;3.58;;;;;;;;;;4853609;29;20101;-79
2021/10/02 07:26:26;;;;;;;5.10;2.90;;;;;;;;;;4853336;29;20096;-80
2021/10/02 07:28:53;;;;;;;6.00;3.58;;;;;;;;;;4854527;29;20077;-80
2021/10/02 07:31:21;;;;;;;5.13;2.85;;;;;;;;;;4860012;29;20053;-80
2021/10/02 07:33:49;;;;;;;4.97;2.45;;;;;;;;;;4863955;29;20045;-80
2021/10/02 07:36:19;;;;;;;6.72;3.33;;;;;;;;;;4891055;29;20044;-80
2021/10/02 07:38:47;;;;;;;8.40;4.05;;;;;;;;;;4871481;29;20076;-82
2021/10/02 07:41:16;;;;;;;7.85;4.13;;;;;;;;;;4873625;29;20620;-81
2021/10/02 07:43:44;;;;;;;5.57;3.20;;;;;;;;;;4862194;29;20490;-81
2021/10/02 07:46:15;;;;;;;6.35;4.00;;;;;;;;;;4845046;29;20069;-82
2021/10/02 07:48:42;;;;;;;6.45;3.47;;;;;;;;;;4858109;29;20059;-81
2021/10/02 07:51:11;;;;;;;6.78;3.78;;;;;;;;;;4867995;29;20507;-81
2021/10/02 07:53:39;;;;;;;5.55;3.85;;;;;;;;;;4875352;29;20102;-81
2021/10/02 07:56:07;;;;;;;6.32;4.30;;;;;;;;;;4875327;29;21908;-81
2021/10/02 07:58:35;;;;;;;7.20;4.47;;;;;;;;;;4876853;29;20044;-81
2021/10/02 08:01:03;;;;;;;7.88;4.88;;;;;;;;;;4859080;29;20065;-81
2021/10/02 08:03:30;;;;;;;8.35;4.30;;;;;;;;;;4844264;29;20045;-81
2021/10/02 08:06:00;;;;;;;6.63;3.90;;;;;;;;;;4844526;29;20041;-81
2021/10/02 08:08:27;;;;;;;9.27;4.93;;;;;;;;;;4873357;29;20065;-81
2021/10/02 08:10:55;;;;;;;11.40;5.15;;;;;;;;;;4871026;29;20132;-80
2021/10/02 08:13:22;;;;;;;8.00;4.72;;;;;;;;;;4852809;29;20159;-79
2021/10/02 08:15:57;;;;;;;8.18;5.50;;;;;;;;;;4848323;29;20064;-80
2021/10/02 08:18:26;;;;;;;6.65;4.88;;;;;;;;;;4870107;29;20048;-80
2021/10/02 08:20:55;;;;;;;10.13;5.95;;;;;;;;;;4865357;29;21923;-80
2021/10/02 08:23:23;;;;;;;6.72;5.10;;;;;;;;;;4863079;29;20501;-79
2021/10/02 08:25:51;;;;;;;6.63;4.20;;;;;;;;;;4874872;29;20577;-79
2021/10/02 08:28:19;;;;;;;7.38;3.75;;;;;;;;;;4877414;29;20117;-79
2021/10/02 08:30:47;;;;;;;8.50;4.18;;;;;;;;;;4846270;29;20076;-82
2021/10/02 08:33:15;;;;;;;12.10;5.90;;;;;;;;;;4855574;29;20052;-78
2021/10/02 08:35:42;;;;;;;10.60;5.30;;;;;;;;;;4847232;29;20105;-81
2021/10/02 08:38:10;;;;;;;7.28;3.80;;;;;;;;;;4855683;29;20096;-82
2021/10/02 08:40:38;;;;;;;6.97;4.00;;;;;;;;;;4879175;29;20065;-82
2021/10/02 08:43:10;;;;;;;6.45;4.35;;;;;;;;;;4871859;29;20044;-82
2021/10/02 08:45:38;;;;;;;7.43;4.20;;;;;;;;;;4860536;29;20482;-79
2021/10/02 08:48:05;;;;;;;5.95;4.45;;;;;;;;;;4864039;29;20053;-80
2021/10/02 08:50:33;;;;;;;6.40;3.83;;;;;;;;;;4858446;29;20072;-81
2021/10/02 08:53:01;;;;;;;5.40;2.65;;;;;;;;;;4872077;29;20056;-82
2021/10/02 08:55:28;;;;;;;6.22;3.63;;;;;;;;;;4876740;29;20036;-81
2021/10/02 08:57:56;;;;;;;6.10;3.35;;;;;;;;;;4856423;29;20057;-81
2021/10/02 09:00:24;;;;;;;6.28;3.33;;;;;;;;;;4874800;29;20180;-83
2021/10/02 09:02:52;;;;;;;5.50;3.83;;;;;;;;;;4849874;29;20563;-81
2021/10/02 09:05:22;;;;;;;6.32;3.17;;;;;;;;;;4864866;29;20467;-81
2021/10/02 09:07:52;;;;;;;5.47;2.95;;;;;;;;;;4881885;29;20044;-80
2021/10/02 09:10:19;;;;;;;5.28;2.65;;;;;;;;;;4881656;29;20080;-80
2021/10/02 09:12:47;;;;;;;3.15;2.00;;;;;;;;;;4865217;29;20044;-80
2021/10/02 09:15:15;;;;;;;4.85;2.17;;;;;;;;;;4861643;29;20069;-81
2021/10/02 09:17:43;;;;;;;4.20;1.98;;;;;;;;;;4846558;29;20069;-80
2021/10/02 09:20:11;;;;;;;5.07;2.40;;;;;;;;;;4846292;29;20561;-80
2021/10/02 09:22:39;;;;;;;9.18;3.15;;;;;;;;;;4858806;29;20045;-77
2021/10/02 09:25:09;;;;;;;6.57;2.67;;;;;;;;;;4846407;29;20554;-77
2021/10/02 09:27:37;;;;;;;5.50;3.13;;;;;;;;;;4862691;29;20073;-77
2021/10/02 09:30:06;;;;;;;4.60;2.67;;;;;;;;;;4846151;29;20141;-77
2021/10/02 09:32:36;;;;;;;7.97;3.88;;;;;;;;;;4861295;29;20128;-77
2021/10/02 09:35:08;;;;;;;4.78;3.47;;;;;;;;;;4861336;29;20057;-77
2021/10/02 09:37:37;;;;;;;5.93;3.65;;;;;;;;;;4861265;29;20149;-78
2021/10/02 09:40:05;;;;;;;5.07;3.80;;;;;;;;;;4862582;29;20423;-78
2021/10/02 09:42:34;;;;;;;4.38;2.92;;;;;;;;;;4862581;29;20045;-78
2021/10/02 09:45:07;;;;;;;4.20;2.50;;;;;;;;;;4852771;29;20444;-78
2021/10/02 09:47:34;;;;;;;5.07;2.58;;;;;;;;;;4854771;29;20074;-77
2021/10/02 09:50:07;;;;;;;7.68;3.22;;;;;;;;;;4855282;29;20049;-76
2021/10/02 09:52:35;;;;;;;4.05;2.92;;;;;;;;;;4843718;29;20082;-79
2021/10/02 09:55:15;;;;;;;4.47;2.75;;;;;;;;;;4846300;29;20490;-77
2021/10/02 09:57:44;;;;;;;7.57;2.88;;;;;;;;;;4855039;29;20120;-76
2021/10/02 10:00:13;;;;;;;5.13;3.45;;;;;;;;;;4857398;29;20050;-76
2021/10/02 10:02:42;;;;;;;5.40;2.70;;;;;;;;;;4875936;29;20128;-76
2021/10/02 10:05:11;;;;;;;6.15;2.22;;;;;;;;;;4861042;29;20116;-75
2021/10/02 10:07:38;;;;;;;6.05;2.13;;;;;;;;;;4859868;29;20448;-75
2021/10/02 10:10:08;;;;;;;4.93;2.70;;;;;;;;;;4860702;29;20048;-74
2021/10/02 10:12:36;;;;;;;5.25;2.25;;;;;;;;;;4840853;29;20073;-76
2021/10/02 10:15:04;;;;;;;4.03;2.17;;;;;;;;;;4869809;29;20073;-76
2021/10/02 10:17:32;;;;;;;6.03;2.25;;;;;;;;;;4829562;29;20037;-76
2021/10/02 10:20:10;;;;;;;3.58;1.90;;;;;;;;;;4859188;29;20097;-76
2021/10/02 10:22:37;;;;;;;3.47;2.00;;;;;;;;;;4844384;29;20069;-76
2021/10/02 10:25:09;;;;;;;3.05;2.10;;;;;;;;;;4859479;29;20095;-75
2021/10/02 10:27:36;;;;;;;3.75;2.15;;;;;;;;;;4860712;29;20499;-76
2021/10/02 10:30:05;;;;;;;4.32;2.08;;;;;;;;;;4860563;29;20105;-75
2021/10/02 10:32:33;;;;;;;5.93;2.28;;;;;;;;;;4859003;29;20098;-76
2021/10/02 10:35:00;;;;;;;6.00;2.60;;;;;;;;;;4843803;29;20132;-75
2021/10/02 10:37:28;;;;;;;3.88;1.92;;;;;;;;;;4844380;29;20128;-75
2021/10/02 10:39:58;;;;;;;3.25;1.75;;;;;;;;;;4860697;29;20098;-75
2021/10/02 10:42:27;;;;;;;3.42;1.80;;;;;;;;;;4874253;29;20072;-75
2021/10/02 10:44:58;;;;;;;2.60;1.38;;;;;;;;;;4858860;29;20120;-76
2021/10/02 10:47:26;;;;;;;1.38;0.90;;;;;;;;;;4855585;29;20042;-75
2021/10/02 10:49:53;;;;;;;1.88;1.08;;;;;;;;;;4859057;29;20460;-77
2021/10/02 10:52:22;;;;;;;2.08;1.30;;;;;;;;;;4843222;29;20051;-76
2021/10/02 10:54:54;;;;;;;2.58;1.17;;;;;;;;;;4853183;29;20113;-75
2021/10/02 10:57:33;;;;;;;3.13;1.35;;;;;;;;;;4860064;29;20049;-76
2021/10/02 11:00:01;;;;;;;1.83;1.08;;;;;;;;;;4860301;29;20475;-75
2021/10/02 11:02:47;;;;;;;2.72;0.90;;;;;;;;;;4859337;29;20073;-76
2021/10/02 11:05:34;;;;;;;1.65;0.90;;;;;;;;;;4859400;29;20395;-77
2021/10/02 11:08:08;;;;;;;1.83;0.65;;;;;;;;;;4870551;29;20453;-79
2021/10/02 11:10:45;;;;;;;1.98;1.05;;;;;;;;;;4870760;29;20484;-77
2021/10/02 11:13:17;;;;;;;2.63;0.98;;;;;;;;;;4866529;29;20052;-76
2021/10/02 11:15:45;;;;;;;2.05;0.70;;;;;;;;;;4884590;29;20057;-75
2021/10/02 11:18:31;;;;;;;1.45;0.65;;;;;;;;;;4867390;29;20386;-75
2021/10/02 11:21:02;;;;;;;1.10;0.60;;;;;;;;;;4878640;29;20060;-77
2021/10/02 11:23:36;;;;;;;2.17;0.70;;;;;;;;;;4862490;29;20078;-77
2021/10/02 11:26:23;;;;;;;1.05;0.40;;;;;;;;;;4863087;29;20136;-77
2021/10/02 11:29:10;;;;;;;1.15;0.43;;;;;;;;;;4862308;29;20610;-77
2021/10/02 11:31:38;;;;;;;1.75;0.30;;;;;;;;;;4847003;29;20060;-77
2021/10/02 11:34:15;;;;;;;1.27;0.50;;;;;;;;;;4847881;29;20041;-77
2021/10/02 11:36:43;;;;;;;1.20;0.40;;;;;;;;;;4862896;29;20045;-77
2021/10/02 11:39:10;;;;;;;1.33;0.50;;;;;;;;;;4862637;29;20045;-77
2021/10/02 11:41:45;;;;;;;2.10;0.57;;;;;;;;;;4862803;29;20049;-77
2021/10/02 11:44:13;;;;;;;2.40;0.60;;;;;;;;;;4862509;29;20080;-76
2021/10/02 11:46:41;;;;;;;2.47;0.52;;;;;;;;;;4877933;29;20140;-76
2021/10/02 11:49:13;;;;;;;0.68;0.40;;;;;;;;;;4841924;29;20136;-77
2021/10/02 11:51:40;;;;;;;1.02;0.47;;;;;;;;;;4861496;29;20105;-78
2021/10/02 11:54:12;;;;;;;1.25;0.40;;;;;;;;;;4878556;29;20053;-77
2021/10/02 11:56:40;;;;;;;1.85;0.40;;;;;;;;;;4876851;29;20128;-77
2021/10/02 11:59:09;;;;;;;0.82;0.40;;;;;;;;;;4846827;29;20049;-76
2021/10/02 12:01:41;;;;;;;1.35;0.50;;;;;;;;;;4841283;29;20041;-77
2021/10/02 12:04:10;;;;;;;1.58;0.55;;;;;;;;;;4862593;29;20061;-77
2021/10/02 12:06:40;;;;;;;0.82;0.30;;;;;;;;;;4871250;29;20045;-76
2021/10/02 12:09:15;;;;;;;1.48;0.32;;;;;;;;;;4862052;29;20037;-77
2021/10/02 12:11:48;;;;;;;0.52;0.22;;;;;;;;;;4877625;29;20053;-78
2021/10/02 12:14:17;;;;;;;1.52;0.30;;;;;;;;;;4859227;29;20061;-76
2021/10/02 12:16:50;;;;;;;1.65;0.40;;;;;;;;;;4844343;29;20101;-76
2021/10/02 12:19:20;;;;;;;0.60;0.40;;;;;;;;;;4870803;29;20077;-76
2021/10/02 12:21:50;;;;;;;1.58;0.38;;;;;;;;;;4859493;29;20068;-76
2021/10/02 12:24:20;;;;;;;1.65;0.43;;;;;;;;;;4854822;29;20094;-75
2021/10/02 12:27:10;;;;;;;0.95;0.30;;;;;;;;;;4846936;29;20121;-78
2021/10/02 12:29:45;;;;;;;1.45;0.50;;;;;;;;;;4851148;29;20045;-77
2021/10/02 12:32:15;;;;;;;0.65;0.40;;;;;;;;;;4854310;29;20460;-76
2021/10/02 12:35:02;;;;;;;1.10;0.50;;;;;;;;;;4846536;29;20103;-78
2021/10/02 12:37:33;;;;;;;1.55;0.25;;;;;;;;;;4861513;29;20136;-78
2021/10/02 12:40:04;;;;;;;1.77;0.30;;;;;;;;;;4848955;29;20073;-76
2021/10/02 12:42:36;;;;;;;1.02;0.25;;;;;;;;;;4862888;29;20106;-78
2021/10/02 12:45:08;;;;;;;0.63;0.30;;;;;;;;;;4861278;29;20045;-77
2021/10/02 12:47:36;;;;;;;0.50;0.30;;;;;;;;;;4843730;29;20391;-78
2021/10/02 12:50:06;;;;;;;0.57;0.30;;;;;;;;;;4846332;29;20049;-79
2021/10/02 12:52:34;;;;;;;0.60;0.20;;;;;;;;;;4859524;29;20130;-75
2021/10/02 12:55:08;;;;;;;0.43;0.28;;;;;;;;;;4859146;29;20053;-75
2021/10/02 12:57:36;;;;;;;0.35;0.20;;;;;;;;;;4860462;29;20041;-76
2021/10/02 13:00:05;;;;;;;0.40;0.22;;;;;;;;;;4850177;29;20041;-76
2021/10/02 13:02:33;;;;;;;0.70;0.25;;;;;;;;;;4861794;29;20037;-76
2021/10/02 13:05:01;;;;;;;1.65;0.20;;;;;;;;;;4859131;29;20406;-76
2021/10/02 13:07:42;;;;;;;0.40;0.20;;;;;;;;;;4856514;29;20042;-74
2021/10/02 13:10:20;;;;;;;0.40;0.30;;;;;;;;;;4854331;29;20055;-76
2021/10/02 13:12:57;;;;;;;0.55;0.20;;;;;;;;;;4854417;29;20046;-76
2021/10/02 13:15:25;;;;;;;0.40;0.20;;;;;;;;;;4863977;29;20532;-77
2021/10/02 13:18:02;;;;;;;0.77;0.20;;;;;;;;;;4864509;29;20127;-75
2021/10/02 13:20:33;;;;;;;0.47;0.20;;;;;;;;;;4893463;29;20055;-76
2021/10/02 13:23:24;;;;;;;0.82;0.30;;;;;;;;;;4864379;29;20427;-76
2021/10/02 13:25:51;;;;;;;0.50;0.20;;;;;;;;;;4864083;29;20128;-76
2021/10/02 13:28:20;;;;;;;1.77;0.30;;;;;;;;;;4873092;29;20431;-77
2021/10/02 13:30:47;;;;;;;0.90;0.15;;;;;;;;;;4863887;29;20101;-76
2021/10/02 13:33:17;;;;;;;0.50;0.20;;;;;;;;;;4848017;29;20104;-75
2021/10/02 13:35:52;;;;;;;1.27;0.20;;;;;;;;;;4878419;29;20057;-76
2021/10/02 13:38:39;;;;;;;0.40;0.20;;;;;;;;;;4863580;29;20051;-77
2021/10/02 13:41:10;;;;;;;0.63;0.22;;;;;;;;;;4862616;29;20049;-77
2021/10/02 13:43:54;;;;;;;0.40;0.10;;;;;;;;;;4896633;29;20116;-76
2021/10/02 13:46:25;;;;;;;0.60;0.20;;;;;;;;;;4863292;29;20140;-77
2021/10/02 13:48:53;;;;;;;0.45;0.20;;;;;;;;;;4881833;29;20060;-78
2021/10/02 13:51:20;;;;;;;0.50;0.25;;;;;;;;;;4854136;29;20136;-76
2021/10/02 13:53:48;;;;;;;1.85;0.30;;;;;;;;;;4875719;29;20045;-75
2021/10/02 13:56:15;;;;;;;1.63;0.22;;;;;;;;;;4842694;29;20409;-78
2021/10/02 13:58:43;;;;;;;0.75;0.30;;;;;;;;;;4881428;29;20049;-76
2021/10/02 14:01:11;;;;;;;0.77;0.28;;;;;;;;;;4886125;29;20052;-77
2021/10/02 14:03:39;;;;;;;0.80;0.20;;;;;;;;;;4868604;29;20053;-77
2021/10/02 14:06:06;;;;;;;0.45;0.20;;;;;;;;;;4863330;29;20083;-78
2021/10/02 14:08:34;;;;;;;1.33;0.20;;;;;;;;;;4862466;29;20697;-76
2021/10/02 14:11:05;;;;;;;0.55;0.22;;;;;;;;;;4843815;29;20459;-76
2021/10/02 14:13:32;;;;;;;0.35;0.15;;;;;;;;;;4860531;29;20117;-76
2021/10/02 14:16:00;;;;;;;0.73;0.20;;;;;;;;;;4859658;29;20136;-75
2021/10/02 14:18:28;;;;;;;1.48;0.30;;;;;;;;;;4868983;29;20567;-77
2021/10/02 14:20:55;;;;;;;0.75;0.20;;;;;;;;;;4876323;29;20048;-75
2021/10/02 14:23:23;;;;;;;0.55;0.40;;;;;;;;;;4845993;29;20081;-76
2021/10/02 14:25:50;;;;;;;0.52;0.25;;;;;;;;;;4861014;29;20048;-79
2021/10/02 14:28:17;;;;;;;1.40;0.30;;;;;;;;;;4856923;29;20141;-79
2021/10/02 14:30:45;;;;;;;0.60;0.20;;;;;;;;;;4872067;29;20072;-78
2021/10/02 14:33:16;;;;;;;1.05;0.20;;;;;;;;;;4877822;29;20043;-78
2021/10/02 14:35:46;;;;;;;0.60;0.20;;;;;;;;;;4863512;29;20055;-79
2021/10/02 14:38:13;;;;;;;0.82;0.30;;;;;;;;;;4886951;29;20451;-78
2021/10/02 14:40:41;;;;;;;0.52;0.25;;;;;;;;;;4886067;29;20037;-78
2021/10/02 14:43:08;;;;;;;1.83;0.77;;;;;;;;;;4871792;29;20147;-78
2021/10/02 14:45:36;;;;;;;0.45;0.20;;;;;;;;;;4866530;29;20047;-77
2021/10/02 14:48:04;;;;;;;0.45;0.17;;;;;;;;;;4891083;29;20044;-77
2021/10/02 14:50:32;;;;;;;0.50;0.30;;;;;;;;;;4879094;29;20037;-76
2021/10/02 14:53:02;;;;;;;0.57;0.20;;;;;;;;;;4865650;29;20045;-76
2021/10/02 14:55:30;;;;;;;0.50;0.20;;;;;;;;;;4874501;29;20068;-76
2021/10/02 14:57:58;;;;;;;1.40;0.30;;;;;;;;;;4874282;29;20045;-78
2021/10/02 15:00:26;;;;;;;0.57;0.20;;;;;;;;;;4859193;29;20041;-77
2021/10/02 15:02:54;;;;;;;0.47;0.20;;;;;;;;;;4863653;29;20041;-77
2021/10/02 15:05:21;;;;;;;0.55;0.20;;;;;;;;;;4860805;29;20075;-76
2021/10/02 15:07:49;;;;;;;1.13;0.30;;;;;;;;;;4879753;29;20049;-76
2021/10/02 15:10:19;;;;;;;0.45;0.20;;;;;;;;;;4878819;29;20127;-76
2021/10/02 15:12:46;;;;;;;0.80;0.20;;;;;;;;;;4869976;29;20104;-76
2021/10/02 15:15:14;;;;;;;0.32;0.20;;;;;;;;;;4875851;29;21215;-77
2021/10/02 15:17:41;;;;;;;0.65;0.20;;;;;;;;;;4864386;29;20072;-77
2021/10/02 15:20:09;;;;;;;0.70;0.30;;;;;;;;;;4874001;29;20044;-77
2021/10/02 15:22:38;;;;;;;0.40;0.20;;;;;;;;;;4883230;29;20076;-77
2021/10/02 15:25:09;;;;;;;0.55;0.20;;;;;;;;;;4870819;29;20049;-76
2021/10/02 15:27:41;;;;;;;0.60;0.20;;;;;;;;;;4872077;29;20048;-76
2021/10/02 15:30:08;;;;;;;1.60;0.32;;;;;;;;;;4875967;29;20063;-78
2021/10/02 15:32:36;;;;;;;1.15;0.22;;;;;;;;;;4842423;29;20064;-76
2021/10/02 15:35:05;;;;;;;1.48;0.20;;;;;;;;;;4860218;29;20516;-76
2021/10/02 15:37:35;;;;;;;0.82;0.22;;;;;;;;;;4846157;29;20048;-77
2021/10/02 15:40:04;;;;;;;0.82;0.30;;;;;;;;;;4878646;29;20105;-77
2021/10/02 15:42:42;;;;;;;0.43;0.13;;;;;;;;;;4871856;29;20051;-77
2021/10/02 15:45:10;;;;;;;0.80;0.20;;;;;;;;;;4869942;29;20086;-78
2021/10/02 15:47:37;;;;;;;0.77;0.20;;;;;;;;;;4872755;29;20057;-77
2021/10/02 15:50:08;;;;;;;0.45;0.20;;;;;;;;;;4868597;29;20120;-78
2021/10/02 15:52:38;;;;;;;0.52;0.20;;;;;;;;;;4885795;29;20096;-76